sensor_id;sensor_type;location;lat;lon;timestamp;pressure;altitude;pressure_sealevel;temperature;humidity
48680;BME280;34475;51.658;5.634;2022-08-11T00:00:01;101960;;;22.8;73.0
48680;BME280;34475;51.658;5.634;2022-08-11T00:01:04;101960;;;22.7;75.3
48680;BME280;34475;51.658;5.634;2022-08-11T00:02:00;101960;;;22.7;75.3
48680;BME280;34475;51.658;5.634;2022-08-11T00:03:02;101960;;;22.7;73.8
48680;BME280;34475;51.658;5.634;2022-08-11T00:04:00;101960;;;22.7;73.8
48680;BME280;34475;51.658;5.634;2022-08-11T00:05:01;101960;;;22.7;73.5
48680;BME280;34475;51.658;5.634;2022-08-11T00:06:00;101960;;;22.7;73.5
48680;BME280;34475;51.658;5.634;2022-08-11T00:07:01;101960;;;22.6;74.3
48680;BME280;34475;51.658;5.634;2022-08-11T00:08:00;101960;;;22.6;74.3
48680;BME280;34475;51.658;5.634;2022-08-11T00:09:00;101960;;;22.6;75.0
48680;BME280;34475;51.658;5.634;2022-08-11T00:10:00;101960;;;22.6;75.0
48680;BME280;34475;51.658;5.634;2022-08-11T00:11:00;101960;;;22.4;76.8
48680;BME280;34475;51.658;5.634;2022-08-11T00:12:00;101960;;;22.4;76.8
48680;BME280;34475;51.658;5.634;2022-08-11T00:13:02;101960;;;22.4;75.6
48680;BME280;34475;51.658;5.634;2022-08-11T00:14:00;101960;;;22.4;75.6
48680;BME280;34475;51.658;5.634;2022-08-11T00:15:00;101960;;;22.6;74.5
48680;BME280;34475;51.658;5.634;2022-08-11T00:16:00;101960;;;22.6;74.5
48680;BME280;34475;51.658;5.634;2022-08-11T00:18:00;101960;;;22.5;75.5
48680;BME280;34475;51.658;5.634;2022-08-11T00:19:00;101960;;;22.4;75.4
48680;BME280;34475;51.658;5.634;2022-08-11T00:20:01;101960;;;22.4;75.4
48680;BME280;34475;51.658;5.634;2022-08-11T00:21:00;101960;;;22.4;76.9
48680;BME280;34475;51.658;5.634;2022-08-11T00:22:00;101960;;;22.4;76.9
48680;BME280;34475;51.658;5.634;2022-08-11T00:23:01;101960;;;22.4;76.0
48680;BME280;34475;51.658;5.634;2022-08-11T00:24:00;101960;;;22.4;76.0
48680;BME280;34475;51.658;5.634;2022-08-11T00:25:06;101960;;;22.4;76.0
48680;BME280;34475;51.658;5.634;2022-08-11T00:26:00;101960;;;22.4;76.0
48680;BME280;34475;51.658;5.634;2022-08-11T00:27:00;101960;;;22.1;78.4
48680;BME280;34475;51.658;5.634;2022-08-11T00:28:00;101960;;;22.1;78.4
48680;BME280;34475;51.658;5.634;2022-08-11T00:29:07;101960;;;22.3;76.6
48680;BME280;34475;51.658;5.634;2022-08-11T00:30:00;101960;;;22.3;76.6
48680;BME280;34475;51.658;5.634;2022-08-11T00:31:08;101960;;;22.1;79.1
48680;BME280;34475;51.658;5.634;2022-08-11T00:32:00;101960;;;22.1;79.1
48680;BME280;34475;51.658;5.634;2022-08-11T00:33:00;101960;;;22.0;79.6
48680;BME280;34475;51.658;5.634;2022-08-11T00:34:00;101960;;;22.0;79.6
48680;BME280;34475;51.658;5.634;2022-08-11T00:35:00;101960;;;22.1;78.1
48680;BME280;34475;51.658;5.634;2022-08-11T00:36:00;101960;;;22.1;78.1
48680;BME280;34475;51.658;5.634;2022-08-11T00:38:00;101960;;;22.0;80.4
48680;BME280;34475;51.658;5.634;2022-08-11T00:39:02;101960;;;21.8;81.3
48680;BME280;34475;51.658;5.634;2022-08-11T00:40:00;101960;;;21.8;81.3
48680;BME280;34475;51.658;5.634;2022-08-11T00:41:03;101960;;;21.9;79.2
48680;BME280;34475;51.658;5.634;2022-08-11T00:42:05;101960;;;21.9;79.2
48680;BME280;34475;51.658;5.634;2022-08-11T00:43:19;101960;;;22.0;79.9
48680;BME280;34475;51.658;5.634;2022-08-11T00:44:06;101960;;;22.0;79.9
48680;BME280;34475;51.658;5.634;2022-08-11T00:45:03;101960;;;21.9;80.2
48680;BME280;34475;51.658;5.634;2022-08-11T00:49:06;101950;;;21.9;80.3
48680;BME280;34475;51.658;5.634;2022-08-11T00:52:09;101960;;;21.9;80.2
48680;BME280;34475;51.658;5.634;2022-08-11T00:53:23;101950;;;21.8;81.6
48680;BME280;34475;51.658;5.634;2022-08-11T00:54:02;101950;;;21.8;81.6
48680;BME280;34475;51.658;5.634;2022-08-11T00:56:12;101950;;;21.8;80.7
48680;BME280;34475;51.658;5.634;2022-08-11T00:57:08;101960;;;21.6;82.3
48680;BME280;34475;51.658;5.634;2022-08-11T00:58:22;101960;;;21.6;82.3
48680;BME280;34475;51.658;5.634;2022-08-11T00:59:14;101950;;;21.6;82.7
48680;BME280;34475;51.658;5.634;2022-08-11T01:07:08;101960;;;21.5;84.3
48680;BME280;34475;51.658;5.634;2022-08-11T01:13:08;101950;;;21.5;84.3
48680;BME280;34475;51.658;5.634;2022-08-11T01:18:10;101950;;;21.3;86.6
48680;BME280;34475;51.658;5.634;2022-08-11T01:21:07;101960;;;21.4;85.5
48680;BME280;34475;51.658;5.634;2022-08-11T01:36:06;101960;;;21.3;85.5
48680;BME280;34475;51.658;5.634;2022-08-11T01:37:02;101960;;;21.2;86.1
48680;BME280;34475;51.658;5.634;2022-08-11T01:39:07;101960;;;21.2;85.8
48680;BME280;34475;51.658;5.634;2022-08-11T01:43:03;101960;;;21.0;86.9
48680;BME280;34475;51.658;5.634;2022-08-11T01:46:05;101960;;;21.0;86.6
48680;BME280;34475;51.658;5.634;2022-08-11T01:48:19;101960;;;21.0;87.7
48680;BME280;34475;51.658;5.634;2022-08-11T01:49:05;101960;;;20.8;88.6
48680;BME280;34475;51.658;5.634;2022-08-11T01:50:11;101960;;;20.8;88.6
48680;BME280;34475;51.658;5.634;2022-08-11T01:53:06;101950;;;20.8;90.0
48680;BME280;34475;51.658;5.634;2022-08-11T01:55:17;101950;;;20.9;87.4
48680;BME280;34475;51.658;5.634;2022-08-11T01:57:10;101960;;;20.9;88.9
48680;BME280;34475;51.658;5.634;2022-08-11T01:59:07;101960;;;20.9;86.5
48680;BME280;34475;51.658;5.634;2022-08-11T02:00:08;101960;;;20.9;86.5
48680;BME280;34475;51.658;5.634;2022-08-11T02:01:22;101960;;;20.9;88.7
48680;BME280;34475;51.658;5.634;2022-08-11T02:03:02;101960;;;20.8;88.9
48680;BME280;34475;51.658;5.634;2022-08-11T02:04:05;101960;;;20.8;88.9
48680;BME280;34475;51.658;5.634;2022-08-11T02:05:02;101960;;;20.7;89.4
48680;BME280;34475;51.658;5.634;2022-08-11T02:07:01;101960;;;20.7;90.2
48680;BME280;34475;51.658;5.634;2022-08-11T02:09:03;101950;;;20.7;89.3
48680;BME280;34475;51.658;5.634;2022-08-11T02:12:02;101950;;;20.6;91.4
48680;BME280;34475;51.658;5.634;2022-08-11T02:13:03;101950;;;20.5;91.5
48680;BME280;34475;51.658;5.634;2022-08-11T02:15:02;101950;;;20.6;90.7
48680;BME280;34475;51.658;5.634;2022-08-11T02:18:09;101950;;;20.7;87.8
48680;BME280;34475;51.658;5.634;2022-08-11T02:19:04;101960;;;20.6;89.5
48680;BME280;34475;51.658;5.634;2022-08-11T02:20:02;101960;;;20.6;89.5
48680;BME280;34475;51.658;5.634;2022-08-11T02:21:01;101960;;;20.7;90.6
48680;BME280;34475;51.658;5.634;2022-08-11T02:22:18;101960;;;20.7;90.6
48680;BME280;34475;51.658;5.634;2022-08-11T02:23:01;101960;;;20.5;90.9
48680;BME280;34475;51.658;5.634;2022-08-11T02:24:04;101960;;;20.5;90.9
48680;BME280;34475;51.658;5.634;2022-08-11T02:26:02;101960;;;20.6;89.6
48680;BME280;34475;51.658;5.634;2022-08-11T02:27:04;101950;;;20.4;92.4
48680;BME280;34475;51.658;5.634;2022-08-11T02:28:01;101950;;;20.4;92.4
48680;BME280;34475;51.658;5.634;2022-08-11T02:30:03;101960;;;20.4;92.4
48680;BME280;34475;51.658;5.634;2022-08-11T02:31:08;101950;;;20.5;90.8
48680;BME280;34475;51.658;5.634;2022-08-11T02:36:02;101950;;;20.5;90.9
48680;BME280;34475;51.658;5.634;2022-08-11T02:37:02;101950;;;20.5;88.8
48680;BME280;34475;51.658;5.634;2022-08-11T02:38:10;101950;;;20.5;88.8
48680;BME280;34475;51.658;5.634;2022-08-11T02:39:02;101950;;;20.4;90.0
48680;BME280;34475;51.658;5.634;2022-08-11T02:40:09;101950;;;20.4;90.0
48680;BME280;34475;51.658;5.634;2022-08-11T02:42:19;101950;;;20.5;90.6
48680;BME280;34475;51.658;5.634;2022-08-11T02:43:06;101950;;;20.5;89.4
48680;BME280;34475;51.658;5.634;2022-08-11T02:46:04;101950;;;20.3;92.7
48680;BME280;34475;51.658;5.634;2022-08-11T02:50:19;101950;;;20.4;90.3
48680;BME280;34475;51.658;5.634;2022-08-11T02:51:11;101950;;;20.4;90.2
48680;BME280;34475;51.658;5.634;2022-08-11T02:55:05;101940;;;20.5;89.5
48680;BME280;34475;51.658;5.634;2022-08-11T02:56:10;101940;;;20.5;89.5
48680;BME280;34475;51.658;5.634;2022-08-11T02:57:03;101940;;;20.3;92.3
48680;BME280;34475;51.658;5.634;2022-08-11T02:58:02;101940;;;20.3;92.3
48680;BME280;34475;51.658;5.634;2022-08-11T02:59:12;101950;;;20.4;89.9
48680;BME280;34475;51.658;5.634;2022-08-11T03:00:08;101950;;;20.4;89.9
48680;BME280;34475;51.658;5.634;2022-08-11T03:01:04;101950;;;20.4;89.3
48680;BME280;34475;51.658;5.634;2022-08-11T03:02:19;101950;;;20.4;89.3
48680;BME280;34475;51.658;5.634;2022-08-11T03:04:04;101950;;;20.3;91.0
48680;BME280;34475;51.658;5.634;2022-08-11T03:06:03;101950;;;20.2;91.3
48680;BME280;34475;51.658;5.634;2022-08-11T03:07:04;101950;;;20.0;93.1
48680;BME280;34475;51.658;5.634;2022-08-11T03:09:03;101950;;;20.0;93.9
48680;BME280;34475;51.658;5.634;2022-08-11T03:15:02;101950;;;20.1;93.3
48680;BME280;34475;51.658;5.634;2022-08-11T03:18:03;101950;;;19.9;96.6
48680;BME280;34475;51.658;5.634;2022-08-11T03:22:02;101950;;;20.0;94.1
48680;BME280;34475;51.658;5.634;2022-08-11T03:24:02;101950;;;20.0;94.2
48680;BME280;34475;51.658;5.634;2022-08-11T03:25:02;101950;;;20.0;93.8
48680;BME280;34475;51.658;5.634;2022-08-11T03:26:01;101950;;;20.0;93.8
48680;BME280;34475;51.658;5.634;2022-08-11T03:28:03;101950;;;19.9;95.7
48680;BME280;34475;51.658;5.634;2022-08-11T03:30:02;101950;;;20.0;94.3
48680;BME280;34475;51.658;5.634;2022-08-11T03:31:09;101950;;;19.8;96.1
48680;BME280;34475;51.658;5.634;2022-08-11T03:32:02;101950;;;19.8;96.1
48680;BME280;34475;51.658;5.634;2022-08-11T03:35:00;101950;;;19.9;96.2
48680;BME280;34475;51.658;5.634;2022-08-11T03:38:00;101950;;;19.9;96.3
48680;BME280;34475;51.658;5.634;2022-08-11T03:39:05;101950;;;19.8;96.8
48680;BME280;34475;51.658;5.634;2022-08-11T03:40:06;101950;;;19.8;96.8
48680;BME280;34475;51.658;5.634;2022-08-11T03:41:05;101950;;;19.8;95.3
48680;BME280;34475;51.658;5.634;2022-08-11T03:43:01;101940;;;19.9;94.2
48680;BME280;34475;51.658;5.634;2022-08-11T03:44:06;101940;;;19.9;94.2
48680;BME280;34475;51.658;5.634;2022-08-11T03:47:03;101940;;;19.8;94.0
48680;BME280;34475;51.658;5.634;2022-08-11T03:51:02;101940;;;19.7;95.7
48680;BME280;34475;51.658;5.634;2022-08-11T03:52:04;101940;;;19.7;95.7
48680;BME280;34475;51.658;5.634;2022-08-11T03:55:07;101940;;;19.8;96.0
48680;BME280;34475;51.658;5.634;2022-08-11T04:00:06;101950;;;19.7;95.7
48680;BME280;34475;51.658;5.634;2022-08-11T04:02:07;101950;;;19.6;97.4
48680;BME280;34475;51.658;5.634;2022-08-11T04:03:13;101940;;;19.5;98.0
48680;BME280;34475;51.658;5.634;2022-08-11T04:04:07;101940;;;19.5;98.0
48680;BME280;34475;51.658;5.634;2022-08-11T04:10:06;101940;;;19.5;98.4
48680;BME280;34475;51.658;5.634;2022-08-11T04:11:06;101940;;;19.6;95.7
48680;BME280;34475;51.658;5.634;2022-08-11T04:16:00;101940;;;19.5;100.0
48680;BME280;34475;51.658;5.634;2022-08-11T04:17:07;101940;;;19.3;100.0
48680;BME280;34475;51.658;5.634;2022-08-11T04:18:04;101940;;;19.3;100.0
48680;BME280;34475;51.658;5.634;2022-08-11T04:19:08;101940;;;19.2;100.0
48680;BME280;34475;51.658;5.634;2022-08-11T04:21:09;101940;;;19.2;100.0
48680;BME280;34475;51.658;5.634;2022-08-11T04:23:06;101940;;;19.3;99.8
48680;BME280;34475;51.658;5.634;2022-08-11T04:30:03;101940;;;19.0;100.0
48680;BME280;34475;51.658;5.634;2022-08-11T04:32:10;101940;;;19.1;100.0
48680;BME280;34475;51.658;5.634;2022-08-11T04:33:02;101940;;;19.1;100.0
48680;BME280;34475;51.658;5.634;2022-08-11T04:34:04;101940;;;19.1;100.0
48680;BME280;34475;51.658;5.634;2022-08-11T04:35:07;101940;;;19.2;100.0
48680;BME280;34475;51.658;5.634;2022-08-11T04:39:07;101940;;;19.1;100.0
48680;BME280;34475;51.658;5.634;2022-08-11T04:43:23;101940;;;19.1;100.0
48680;BME280;34475;51.658;5.634;2022-08-11T04:50:14;101940;;;19.0;100.0
48680;BME280;34475;51.658;5.634;2022-08-11T04:52:03;101940;;;19.0;100.0
48680;BME280;34475;51.658;5.634;2022-08-11T04:53:07;101940;;;19.1;100.0
48680;BME280;34475;51.658;5.634;2022-08-11T04:55:06;101940;;;19.1;100.0
48680;BME280;34475;51.658;5.634;2022-08-11T04:57:02;101940;;;19.2;100.0
48680;BME280;34475;51.658;5.634;2022-08-11T04:58:03;101940;;;19.2;100.0
48680;BME280;34475;51.658;5.634;2022-08-11T05:06:07;101940;;;19.0;100.0
48680;BME280;34475;51.658;5.634;2022-08-11T05:10:10;101940;;;19.0;100.0
48680;BME280;34475;51.658;5.634;2022-08-11T05:12:01;101940;;;19.1;100.0
48680;BME280;34475;51.658;5.634;2022-08-11T05:13:00;101940;;;19.1;100.0
48680;BME280;34475;51.658;5.634;2022-08-11T05:15:00;101940;;;19.1;100.0
48680;BME280;34475;51.658;5.634;2022-08-11T05:16:01;101940;;;19.1;100.0
48680;BME280;34475;51.658;5.634;2022-08-11T05:17:03;101940;;;19.2;100.0
48680;BME280;34475;51.658;5.634;2022-08-11T05:18:01;101940;;;19.2;100.0
48680;BME280;34475;51.658;5.634;2022-08-11T05:19:00;101940;;;19.3;100.0
48680;BME280;34475;51.658;5.634;2022-08-11T05:20:00;101940;;;19.3;100.0
48680;BME280;34475;51.658;5.634;2022-08-11T05:21:02;101940;;;19.3;100.0
48680;BME280;34475;51.658;5.634;2022-08-11T05:22:00;101940;;;19.3;100.0
48680;BME280;34475;51.658;5.634;2022-08-11T05:23:03;101940;;;19.2;100.0
48680;BME280;34475;51.658;5.634;2022-08-11T05:24:05;101940;;;19.2;100.0
48680;BME280;34475;51.658;5.634;2022-08-11T05:26:00;101950;;;19.4;100.0
48680;BME280;34475;51.658;5.634;2022-08-11T05:27:00;101940;;;19.3;100.0
48680;BME280;34475;51.658;5.634;2022-08-11T05:28:19;101940;;;19.3;100.0
48680;BME280;34475;51.658;5.634;2022-08-11T05:29:00;101940;;;19.3;100.0
48680;BME280;34475;51.658;5.634;2022-08-11T05:30:01;101940;;;19.3;100.0
48680;BME280;34475;51.658;5.634;2022-08-11T05:31:03;101940;;;19.3;100.0
48680;BME280;34475;51.658;5.634;2022-08-11T05:32:00;101940;;;19.3;100.0
48680;BME280;34475;51.658;5.634;2022-08-11T05:33:08;101940;;;19.3;100.0
48680;BME280;34475;51.658;5.634;2022-08-11T05:34:01;101940;;;19.3;100.0
48680;BME280;34475;51.658;5.634;2022-08-11T05:35:01;101950;;;19.4;100.0
48680;BME280;34475;51.658;5.634;2022-08-11T05:36:04;101950;;;19.4;100.0
48680;BME280;34475;51.658;5.634;2022-08-11T05:37:04;101950;;;19.4;100.0
48680;BME280;34475;51.658;5.634;2022-08-11T05:38:00;101950;;;19.4;100.0
48680;BME280;34475;51.658;5.634;2022-08-11T05:39:01;101950;;;19.4;100.0
48680;BME280;34475;51.658;5.634;2022-08-11T05:40:04;101950;;;19.4;100.0
48680;BME280;34475;51.658;5.634;2022-08-11T05:41:00;101950;;;19.5;100.0
48680;BME280;34475;51.658;5.634;2022-08-11T05:42:00;101950;;;19.5;100.0
48680;BME280;34475;51.658;5.634;2022-08-11T05:43:00;101950;;;19.4;100.0
48680;BME280;34475;51.658;5.634;2022-08-11T05:44:00;101950;;;19.4;100.0
48680;BME280;34475;51.658;5.634;2022-08-11T05:45:02;101950;;;19.5;100.0
48680;BME280;34475;51.658;5.634;2022-08-11T05:46:01;101950;;;19.5;100.0
48680;BME280;34475;51.658;5.634;2022-08-11T05:47:00;101950;;;19.6;100.0
48680;BME280;34475;51.658;5.634;2022-08-11T05:48:00;101950;;;19.6;100.0
48680;BME280;34475;51.658;5.634;2022-08-11T05:49:00;101960;;;19.7;100.0
48680;BME280;34475;51.658;5.634;2022-08-11T05:50:00;101960;;;19.7;100.0
48680;BME280;34475;51.658;5.634;2022-08-11T05:51:00;101960;;;19.6;100.0
48680;BME280;34475;51.658;5.634;2022-08-11T05:52:00;101960;;;19.6;100.0
48680;BME280;34475;51.658;5.634;2022-08-11T05:53:00;101960;;;19.7;100.0
48680;BME280;34475;51.658;5.634;2022-08-11T05:54:00;101960;;;19.7;100.0
48680;BME280;34475;51.658;5.634;2022-08-11T05:55:02;101960;;;19.8;100.0
48680;BME280;34475;51.658;5.634;2022-08-11T05:56:03;101960;;;19.8;100.0
48680;BME280;34475;51.658;5.634;2022-08-11T05:57:00;101960;;;19.8;100.0
48680;BME280;34475;51.658;5.634;2022-08-11T05:58:01;101960;;;19.8;100.0
48680;BME280;34475;51.658;5.634;2022-08-11T05:59:00;101960;;;19.9;100.0
48680;BME280;34475;51.658;5.634;2022-08-11T06:00:01;101960;;;19.9;100.0
48680;BME280;34475;51.658;5.634;2022-08-11T06:01:00;101960;;;20.0;100.0
48680;BME280;34475;51.658;5.634;2022-08-11T06:02:00;101960;;;20.0;100.0
48680;BME280;34475;51.658;5.634;2022-08-11T06:03:00;101960;;;19.9;100.0
48680;BME280;34475;51.658;5.634;2022-08-11T06:04:04;101960;;;19.9;100.0
48680;BME280;34475;51.658;5.634;2022-08-11T06:05:00;101960;;;19.9;100.0
48680;BME280;34475;51.658;5.634;2022-08-11T06:06:00;101960;;;19.9;100.0
48680;BME280;34475;51.658;5.634;2022-08-11T06:07:02;101960;;;20.1;100.0
48680;BME280;34475;51.658;5.634;2022-08-11T06:08:00;101960;;;20.1;100.0
48680;BME280;34475;51.658;5.634;2022-08-11T06:09:00;101960;;;20.1;100.0
48680;BME280;34475;51.658;5.634;2022-08-11T06:10:00;101960;;;20.1;100.0
48680;BME280;34475;51.658;5.634;2022-08-11T06:11:00;101960;;;20.1;100.0
48680;BME280;34475;51.658;5.634;2022-08-11T06:13:00;101960;;;20.2;100.0
48680;BME280;34475;51.658;5.634;2022-08-11T06:14:00;101960;;;20.2;100.0
48680;BME280;34475;51.658;5.634;2022-08-11T06:15:00;101960;;;20.3;100.0
48680;BME280;34475;51.658;5.634;2022-08-11T06:16:00;101960;;;20.3;100.0
48680;BME280;34475;51.658;5.634;2022-08-11T06:17:00;101960;;;20.3;100.0
48680;BME280;34475;51.658;5.634;2022-08-11T06:18:00;101960;;;20.3;100.0
48680;BME280;34475;51.658;5.634;2022-08-11T06:19:00;101960;;;20.3;100.0
48680;BME280;34475;51.658;5.634;2022-08-11T06:20:02;101960;;;20.3;100.0
48680;BME280;34475;51.658;5.634;2022-08-11T06:21:00;101960;;;20.4;100.0
48680;BME280;34475;51.658;5.634;2022-08-11T06:22:00;101960;;;20.4;100.0
48680;BME280;34475;51.658;5.634;2022-08-11T06:23:01;101970;;;20.5;100.0
48680;BME280;34475;51.658;5.634;2022-08-11T06:24:00;101970;;;20.5;100.0
48680;BME280;34475;51.658;5.634;2022-08-11T06:25:00;101970;;;20.6;100.0
48680;BME280;34475;51.658;5.634;2022-08-11T06:26:00;101970;;;20.6;100.0
48680;BME280;34475;51.658;5.634;2022-08-11T06:27:00;101960;;;20.6;100.0
48680;BME280;34475;51.658;5.634;2022-08-11T06:28:01;101960;;;20.6;100.0
48680;BME280;34475;51.658;5.634;2022-08-11T06:29:00;101970;;;20.8;100.0
48680;BME280;34475;51.658;5.634;2022-08-11T06:30:00;101970;;;20.8;100.0
48680;BME280;34475;51.658;5.634;2022-08-11T06:31:00;101970;;;20.7;100.0
48680;BME280;34475;51.658;5.634;2022-08-11T06:32:00;101970;;;20.7;100.0
48680;BME280;34475;51.658;5.634;2022-08-11T06:33:00;101970;;;20.8;100.0
48680;BME280;34475;51.658;5.634;2022-08-11T06:55:04;101960;;;21.7;99.5
48680;BME280;34475;51.658;5.634;2022-08-11T06:56:00;101960;;;21.7;99.5
48680;BME280;34475;51.658;5.634;2022-08-11T06:57:00;101960;;;21.8;97.8
48680;BME280;34475;51.658;5.634;2022-08-11T06:58:00;101960;;;21.8;97.8
48680;BME280;34475;51.658;5.634;2022-08-11T06:59:00;101970;;;21.8;98.8
48680;BME280;34475;51.658;5.634;2022-08-11T07:00:00;101970;;;21.8;98.8
48680;BME280;34475;51.658;5.634;2022-08-11T07:01:00;101970;;;21.8;98.0
48680;BME280;34475;51.658;5.634;2022-08-11T07:04:03;101970;;;22.0;97.3
48680;BME280;34475;51.658;5.634;2022-08-11T07:05:00;101970;;;22.1;95.1
48680;BME280;34475;51.658;5.634;2022-08-11T07:06:14;101970;;;22.1;95.1
48680;BME280;34475;51.658;5.634;2022-08-11T07:09:06;101960;;;22.1;94.9
48680;BME280;34475;51.658;5.634;2022-08-11T07:13:00;101960;;;22.2;93.9
48680;BME280;34475;51.658;5.634;2022-08-11T07:14:00;101960;;;22.2;93.9
48680;BME280;34475;51.658;5.634;2022-08-11T07:15:00;101960;;;22.3;93.2
48680;BME280;34475;51.658;5.634;2022-08-11T07:16:00;101960;;;22.3;93.2
48680;BME280;34475;51.658;5.634;2022-08-11T07:17:00;101960;;;22.3;92.7
48680;BME280;34475;51.658;5.634;2022-08-11T07:18:00;101960;;;22.3;92.7
48680;BME280;34475;51.658;5.634;2022-08-11T07:19:01;101960;;;22.4;93.1
48680;BME280;34475;51.658;5.634;2022-08-11T07:20:00;101960;;;22.4;93.1
48680;BME280;34475;51.658;5.634;2022-08-11T07:21:19;101960;;;22.6;92.5
48680;BME280;34475;51.658;5.634;2022-08-11T07:22:00;101960;;;22.6;92.5
48680;BME280;34475;51.658;5.634;2022-08-11T07:23:00;101960;;;22.6;92.0
48680;BME280;34475;51.658;5.634;2022-08-11T07:24:00;101960;;;22.6;92.0
48680;BME280;34475;51.658;5.634;2022-08-11T07:25:00;101960;;;22.7;91.6
48680;BME280;34475;51.658;5.634;2022-08-11T07:26:00;101960;;;22.7;91.6
48680;BME280;34475;51.658;5.634;2022-08-11T07:27:00;101960;;;22.8;90.9
48680;BME280;34475;51.658;5.634;2022-08-11T07:28:04;101960;;;22.8;90.9
48680;BME280;34475;51.658;5.634;2022-08-11T07:29:00;101960;;;22.9;91.4
48680;BME280;34475;51.658;5.634;2022-08-11T07:30:01;101960;;;22.9;91.4
48680;BME280;34475;51.658;5.634;2022-08-11T07:31:00;101960;;;23.0;91.5
48680;BME280;34475;51.658;5.634;2022-08-11T07:32:01;101960;;;23.0;91.5
48680;BME280;34475;51.658;5.634;2022-08-11T07:33:00;101960;;;23.0;91.1
48680;BME280;34475;51.658;5.634;2022-08-11T07:34:03;101960;;;23.0;91.1
48680;BME280;34475;51.658;5.634;2022-08-11T07:35:08;101960;;;23.1;89.8
48680;BME280;34475;51.658;5.634;2022-08-11T07:36:00;101960;;;23.1;89.8
48680;BME280;34475;51.658;5.634;2022-08-11T07:37:02;101960;;;23.3;89.5
48680;BME280;34475;51.658;5.634;2022-08-11T07:38:01;101960;;;23.3;89.5
48680;BME280;34475;51.658;5.634;2022-08-11T07:39:00;101950;;;23.3;89.6
48680;BME280;34475;51.658;5.634;2022-08-11T07:40:00;101950;;;23.3;89.6
48680;BME280;34475;51.658;5.634;2022-08-11T07:41:00;101960;;;23.5;89.1
48680;BME280;34475;51.658;5.634;2022-08-11T07:42:05;101960;;;23.5;89.1
48680;BME280;34475;51.658;5.634;2022-08-11T07:43:00;101960;;;23.4;89.1
48680;BME280;34475;51.658;5.634;2022-08-11T07:44:00;101960;;;23.4;89.1
48680;BME280;34475;51.658;5.634;2022-08-11T07:45:00;101960;;;23.8;88.0
48680;BME280;34475;51.658;5.634;2022-08-11T07:46:00;101960;;;23.8;88.0
48680;BME280;34475;51.658;5.634;2022-08-11T07:47:00;101960;;;23.8;87.3
48680;BME280;34475;51.658;5.634;2022-08-11T07:48:00;101960;;;23.8;87.3
48680;BME280;34475;51.658;5.634;2022-08-11T07:49:00;101960;;;23.8;86.6
48680;BME280;34475;51.658;5.634;2022-08-11T07:50:00;101960;;;23.8;86.6
48680;BME280;34475;51.658;5.634;2022-08-11T07:51:00;101960;;;23.8;85.9
48680;BME280;34475;51.658;5.634;2022-08-11T07:52:00;101960;;;23.8;85.9
48680;BME280;34475;51.658;5.634;2022-08-11T07:53:00;101960;;;23.9;85.6
48680;BME280;34475;51.658;5.634;2022-08-11T07:54:00;101960;;;23.9;85.6
48680;BME280;34475;51.658;5.634;2022-08-11T07:55:04;101960;;;24.0;85.8
48680;BME280;34475;51.658;5.634;2022-08-11T07:56:00;101960;;;24.0;85.8
48680;BME280;34475;51.658;5.634;2022-08-11T07:57:00;101960;;;24.1;84.6
48680;BME280;34475;51.658;5.634;2022-08-11T07:58:00;101960;;;24.1;84.6
48680;BME280;34475;51.658;5.634;2022-08-11T07:59:00;101960;;;24.2;85.1
48680;BME280;34475;51.658;5.634;2022-08-11T08:00:00;101960;;;24.2;85.1
48680;BME280;34475;51.658;5.634;2022-08-11T08:01:00;101960;;;24.3;82.4
48680;BME280;34475;51.658;5.634;2022-08-11T08:02:00;101960;;;24.3;82.4
48680;BME280;34475;51.658;5.634;2022-08-11T08:03:00;101960;;;24.4;83.5
48680;BME280;34475;51.658;5.634;2022-08-11T08:04:00;101960;;;24.4;83.5
48680;BME280;34475;51.658;5.634;2022-08-11T08:05:00;101970;;;24.4;84.0
48680;BME280;34475;51.658;5.634;2022-08-11T08:06:00;101970;;;24.4;84.0
48680;BME280;34475;51.658;5.634;2022-08-11T08:07:00;101960;;;24.5;82.9
48680;BME280;34475;51.658;5.634;2022-08-11T08:08:00;101960;;;24.5;82.9
48680;BME280;34475;51.658;5.634;2022-08-11T08:09:00;101960;;;24.7;81.3
48680;BME280;34475;51.658;5.634;2022-08-11T08:10:00;101960;;;24.7;81.3
48680;BME280;34475;51.658;5.634;2022-08-11T08:11:00;101960;;;24.8;77.7
48680;BME280;34475;51.658;5.634;2022-08-11T08:12:00;101960;;;24.8;77.7
48680;BME280;34475;51.658;5.634;2022-08-11T08:13:00;101970;;;25.0;76.8
48680;BME280;34475;51.658;5.634;2022-08-11T08:14:00;101970;;;25.0;76.8
48680;BME280;34475;51.658;5.634;2022-08-11T08:15:00;101970;;;25.1;74.0
48680;BME280;34475;51.658;5.634;2022-08-11T08:16:00;101970;;;25.1;74.0
48680;BME280;34475;51.658;5.634;2022-08-11T08:17:00;101960;;;25.1;73.2
48680;BME280;34475;51.658;5.634;2022-08-11T08:18:01;101960;;;25.1;73.2
48680;BME280;34475;51.658;5.634;2022-08-11T08:19:00;101970;;;25.2;74.9
48680;BME280;34475;51.658;5.634;2022-08-11T08:20:00;101970;;;25.2;74.9
48680;BME280;34475;51.658;5.634;2022-08-11T08:21:00;101970;;;25.3;73.2
48680;BME280;34475;51.658;5.634;2022-08-11T08:22:00;101970;;;25.3;73.2
48680;BME280;34475;51.658;5.634;2022-08-11T08:23:00;101970;;;25.3;72.7
48680;BME280;34475;51.658;5.634;2022-08-11T08:24:00;101970;;;25.3;72.7
48680;BME280;34475;51.658;5.634;2022-08-11T08:25:00;101970;;;25.3;69.9
48680;BME280;34475;51.658;5.634;2022-08-11T08:26:02;101970;;;25.3;69.9
48680;BME280;34475;51.658;5.634;2022-08-11T08:27:00;101960;;;25.5;67.0
48680;BME280;34475;51.658;5.634;2022-08-11T08:28:01;101960;;;25.5;67.0
48680;BME280;34475;51.658;5.634;2022-08-11T08:29:00;101960;;;25.7;66.8
48680;BME280;34475;51.658;5.634;2022-08-11T08:30:00;101960;;;25.7;66.8
48680;BME280;34475;51.658;5.634;2022-08-11T08:31:00;101960;;;25.7;64.9
48680;BME280;34475;51.658;5.634;2022-08-11T08:32:00;101960;;;25.7;64.9
48680;BME280;34475;51.658;5.634;2022-08-11T08:33:00;101960;;;25.6;65.2
48680;BME280;34475;51.658;5.634;2022-08-11T08:34:00;101960;;;25.6;65.2
48680;BME280;34475;51.658;5.634;2022-08-11T08:35:00;101960;;;25.7;63.7
48680;BME280;34475;51.658;5.634;2022-08-11T08:36:01;101960;;;25.7;63.7
48680;BME280;34475;51.658;5.634;2022-08-11T08:37:00;101960;;;25.7;60.5